sensor_id;sensor_type;location;lat;lon;timestamp;pressure;altitude;pressure_sealevel;temperature;humidity
49104;BME280;34915;52.926;11.116;2023-07-24T00:00:24;100324.66;;;18.29;74.18
49104;BME280;34915;52.926;11.116;2023-07-24T00:02:50;100312.78;;;18.29;73.98
49104;BME280;34915;52.926;11.116;2023-07-24T00:05:15;100313.09;;;18.31;74.08
49104;BME280;34915;52.926;11.116;2023-07-24T00:07:41;100292.09;;;18.30;74.04
49104;BME280;34915;52.926;11.116;2023-07-24T00:10:07;100285.44;;;18.27;74.60
49104;BME280;34915;52.926;11.116;2023-07-24T00:12:32;100284.66;;;18.27;74.77
49104;BME280;34915;52.926;11.116;2023-07-24T00:14:58;100284.22;;;18.28;74.16
49104;BME280;34915;52.926;11.116;2023-07-24T00:17:24;100280.22;;;18.29;74.16
49104;BME280;34915;52.926;11.116;2023-07-24T00:19:49;100270.56;;;18.34;74.77
49104;BME280;34915;52.926;11.116;2023-07-24T00:22:15;100271.22;;;18.25;74.53
49104;BME280;34915;52.926;11.116;2023-07-24T00:24:40;100265.66;;;18.25;74.81
49104;BME280;34915;52.926;11.116;2023-07-24T00:27:06;100258.88;;;18.26;74.75
49104;BME280;34915;52.926;11.116;2023-07-24T00:29:31;100255.75;;;18.24;74.40
49104;BME280;34915;52.926;11.116;2023-07-24T00:31:57;100258.09;;;18.26;74.92
49104;BME280;34915;52.926;11.116;2023-07-24T00:34:22;100260.13;;;18.38;74.16
49104;BME280;34915;52.926;11.116;2023-07-24T00:36:48;100254.13;;;18.40;74.03
49104;BME280;34915;52.926;11.116;2023-07-24T00:39:14;100258.13;;;18.39;73.85
49104;BME280;34915;52.926;11.116;2023-07-24T00:41:40;100254.78;;;18.44;74.07
49104;BME280;34915;52.926;11.116;2023-07-24T00:44:06;100258.78;;;18.43;74.10
49104;BME280;34915;52.926;11.116;2023-07-24T00:46:32;100254.00;;;18.43;73.80
49104;BME280;34915;52.926;11.116;2023-07-24T00:49:00;100262.00;;;18.41;73.77
49104;BME280;34915;52.926;11.116;2023-07-24T00:51:29;100265.13;;;18.43;73.96
49104;BME280;34915;52.926;11.116;2023-07-24T00:53:57;100267.13;;;18.43;73.91
49104;BME280;34915;52.926;11.116;2023-07-24T00:56:23;100261.22;;;18.41;73.92
49104;BME280;34915;52.926;11.116;2023-07-24T00:58:49;100262.69;;;18.45;73.27
49104;BME280;34915;52.926;11.116;2023-07-24T01:01:16;100265.44;;;18.45;73.94
49104;BME280;34915;52.926;11.116;2023-07-24T01:03:43;100261.56;;;18.43;74.11
49104;BME280;34915;52.926;11.116;2023-07-24T01:06:09;100259.34;;;18.38;74.42
49104;BME280;34915;52.926;11.116;2023-07-24T01:08:34;100270.22;;;18.45;74.37
49104;BME280;34915;52.926;11.116;2023-07-24T01:11:06;100264.22;;;18.46;75.00
49104;BME280;34915;52.926;11.116;2023-07-24T01:13:36;100265.09;;;18.30;75.82
49104;BME280;34915;52.926;11.116;2023-07-24T01:16:09;100255.56;;;18.31;76.27
49104;BME280;34915;52.926;11.116;2023-07-24T01:18:38;100255.31;;;18.26;76.77
49104;BME280;34915;52.926;11.116;2023-07-24T01:21:05;100255.22;;;18.29;77.10
49104;BME280;34915;52.926;11.116;2023-07-24T01:23:55;100250.53;;;18.26;77.32
49104;BME280;34915;52.926;11.116;2023-07-24T01:26:25;100243.66;;;18.31;77.03
49104;BME280;34915;52.926;11.116;2023-07-24T01:28:51;100245.88;;;18.36;77.51
49104;BME280;34915;52.926;11.116;2023-07-24T01:31:17;100242.34;;;18.36;76.84
49104;BME280;34915;52.926;11.116;2023-07-24T01:33:43;100241.00;;;18.40;77.11
49104;BME280;34915;52.926;11.116;2023-07-24T01:36:09;100239.66;;;18.45;76.78
49104;BME280;34915;52.926;11.116;2023-07-24T01:38:36;100236.34;;;18.37;77.33
49104;BME280;34915;52.926;11.116;2023-07-24T01:41:05;100232.00;;;18.36;77.49
49104;BME280;34915;52.926;11.116;2023-07-24T01:43:31;100233.66;;;18.33;77.49
49104;BME280;34915;52.926;11.116;2023-07-24T01:45:58;100230.22;;;18.29;78.01
49104;BME280;34915;52.926;11.116;2023-07-24T01:48:23;100236.53;;;18.17;77.75
49104;BME280;34915;52.926;11.116;2023-07-24T01:50:49;100223.88;;;18.16;77.45
49104;BME280;34915;52.926;11.116;2023-07-24T01:53:15;100232.09;;;18.20;78.13
49104;BME280;34915;52.926;11.116;2023-07-24T01:55:41;100221.88;;;18.17;77.37
49104;BME280;34915;52.926;11.116;2023-07-24T01:58:06;100227.75;;;18.19;78.20
49104;BME280;34915;52.926;11.116;2023-07-24T02:00:32;100231.31;;;18.19;77.75
49104;BME280;34915;52.926;11.116;2023-07-24T02:02:58;100232.97;;;18.17;77.96
49104;BME280;34915;52.926;11.116;2023-07-24T02:05:23;100231.63;;;18.09;77.39
49104;BME280;34915;52.926;11.116;2023-07-24T02:07:49;100227.31;;;18.08;77.90
49104;BME280;34915;52.926;11.116;2023-07-24T02:10:14;100221.19;;;18.00;77.86
49104;BME280;34915;52.926;11.116;2023-07-24T02:12:40;100223.06;;;18.03;78.49
49104;BME280;34915;52.926;11.116;2023-07-24T02:15:06;100220.53;;;18.09;77.63
49104;BME280;34915;52.926;11.116;2023-07-24T02:17:32;100220.66;;;18.18;77.77
49104;BME280;34915;52.926;11.116;2023-07-24T02:19:58;100224.75;;;18.13;77.66
49104;BME280;34915;52.926;11.116;2023-07-24T02:22:24;100224.00;;;18.25;77.51
49104;BME280;34915;52.926;11.116;2023-07-24T02:24:49;100220.66;;;18.18;76.97
49104;BME280;34915;52.926;11.116;2023-07-24T02:27:26;100217.78;;;18.34;77.52
49104;BME280;34915;52.926;11.116;2023-07-24T02:29:52;100213.53;;;18.17;78.04
49104;BME280;34915;52.926;11.116;2023-07-24T02:32:17;100217.88;;;18.30;77.12
49104;BME280;34915;52.926;11.116;2023-07-24T02:34:43;100221.44;;;18.31;77.55
49104;BME280;34915;52.926;11.116;2023-07-24T02:37:08;100224.56;;;18.33;77.15
49104;BME280;34915;52.926;11.116;2023-07-24T02:39:34;100231.09;;;18.39;77.48
49104;BME280;34915;52.926;11.116;2023-07-24T02:41:59;100225.44;;;18.43;77.45
49104;BME280;34915;52.926;11.116;2023-07-24T02:44:25;100232.44;;;18.47;77.21
49104;BME280;34915;52.926;11.116;2023-07-24T02:46:50;100239.66;;;18.45;76.89
49104;BME280;34915;52.926;11.116;2023-07-24T02:49:16;100230.09;;;18.46;77.07
49104;BME280;34915;52.926;11.116;2023-07-24T02:51:41;100241.03;;;18.53;76.64
49104;BME280;34915;52.926;11.116;2023-07-24T02:54:07;100238.34;;;18.49;77.13
49104;BME280;34915;52.926;11.116;2023-07-24T02:56:32;100245.13;;;18.48;77.32
49104;BME280;34915;52.926;11.116;2023-07-24T02:59:00;100229.81;;;18.56;77.36
49104;BME280;34915;52.926;11.116;2023-07-24T03:01:28;100238.88;;;18.44;77.95
49104;BME280;34915;52.926;11.116;2023-07-24T03:03:54;100246.66;;;18.49;77.73
49104;BME280;34915;52.926;11.116;2023-07-24T03:06:19;100227.13;;;18.53;77.23
49104;BME280;34915;52.926;11.116;2023-07-24T03:08:46;100233.69;;;18.59;77.19
49104;BME280;34915;52.926;11.116;2023-07-24T03:11:12;100247.34;;;18.41;78.12
49104;BME280;34915;52.926;11.116;2023-07-24T03:13:37;100253.78;;;18.38;77.60
49104;BME280;34915;52.926;11.116;2023-07-24T03:16:06;100257.13;;;18.45;76.88
49104;BME280;34915;52.926;11.116;2023-07-24T03:18:31;100260.25;;;18.60;76.94
49104;BME280;34915;52.926;11.116;2023-07-24T03:20:58;100256.19;;;18.64;76.54
49104;BME280;34915;52.926;11.116;2023-07-24T03:23:24;100252.38;;;18.58;77.63
49104;BME280;34915;52.926;11.116;2023-07-24T03:25:49;100260.16;;;18.51;77.63
49104;BME280;34915;52.926;11.116;2023-07-24T03:28:15;100253.91;;;18.47;77.85
49104;BME280;34915;52.926;11.116;2023-07-24T03:30:41;100247.38;;;18.53;77.02
49104;BME280;34915;52.926;11.116;2023-07-24T03:33:06;100261.59;;;18.55;77.86
49104;BME280;34915;52.926;11.116;2023-07-24T03:35:32;100258.38;;;18.57;77.16
49104;BME280;34915;52.926;11.116;2023-07-24T03:38:00;100254.28;;;18.61;77.18
49104;BME280;34915;52.926;11.116;2023-07-24T03:40:26;100256.69;;;18.59;77.57
49104;BME280;34915;52.926;11.116;2023-07-24T03:42:51;100245.38;;;18.67;76.90
49104;BME280;34915;52.926;11.116;2023-07-24T03:45:17;100251.16;;;18.72;76.79
49104;BME280;34915;52.926;11.116;2023-07-24T03:47:42;100251.84;;;18.63;77.42
49104;BME280;34915;52.926;11.116;2023-07-24T03:50:08;100252.16;;;18.53;78.11
49104;BME280;34915;52.926;11.116;2023-07-24T03:52:34;100245.81;;;18.52;77.90
49104;BME280;34915;52.926;11.116;2023-07-24T03:55:00;100244.91;;;18.55;77.51
49104;BME280;34915;52.926;11.116;2023-07-24T03:57:25;100239.56;;;18.48;77.95
49104;BME280;34915;52.926;11.116;2023-07-24T03:59:51;100240.44;;;18.45;77.97
49104;BME280;34915;52.926;11.116;2023-07-24T04:02:16;100234.44;;;18.47;77.93
49104;BME280;34915;52.926;11.116;2023-07-24T04:04:42;100217.78;;;18.59;77.79
49104;BME280;34915;52.926;11.116;2023-07-24T04:07:07;100229.47;;;18.54;77.67
49104;BME280;34915;52.926;11.116;2023-07-24T04:09:33;100225.81;;;18.57;77.62
49104;BME280;34915;52.926;11.116;2023-07-24T04:11:59;100219.00;;;18.58;77.69
49104;BME280;34915;52.926;11.116;2023-07-24T04:14:24;100215.59;;;18.67;77.42
49104;BME280;34915;52.926;11.116;2023-07-24T04:16:50;100221.81;;;18.71;77.87
49104;BME280;34915;52.926;11.116;2023-07-24T04:19:15;100224.16;;;18.73;77.98
49104;BME280;34915;52.926;11.116;2023-07-24T04:21:41;100225.47;;;18.81;77.90
49104;BME280;34915;52.926;11.116;2023-07-24T04:24:07;100220.81;;;18.78;77.58
49104;BME280;34915;52.926;11.116;2023-07-24T04:26:32;100212.34;;;18.81;77.34
49104;BME280;34915;52.926;11.116;2023-07-24T04:28:58;100207.91;;;18.84;78.08
49104;BME280;34915;52.926;11.116;2023-07-24T04:31:23;100213.78;;;18.86;77.56
49104;BME280;34915;52.926;11.116;2023-07-24T04:33:49;100208.56;;;18.88;77.44
49104;BME280;34915;52.926;11.116;2023-07-24T04:36:14;100205.31;;;18.89;77.77
49104;BME280;34915;52.926;11.116;2023-07-24T04:38:40;100206.88;;;18.90;77.67
49104;BME280;34915;52.926;11.116;2023-07-24T04:41:05;100206.56;;;18.88;77.60
49104;BME280;34915;52.926;11.116;2023-07-24T04:43:31;100195.44;;;18.88;77.42
49104;BME280;34915;52.926;11.116;2023-07-24T04:45:59;100202.75;;;18.95;77.45
49104;BME280;34915;52.926;11.116;2023-07-24T04:48:24;100192.16;;;19.03;77.33
49104;BME280;34915;52.926;11.116;2023-07-24T04:50:54;100196.81;;;19.06;76.86
49104;BME280;34915;52.926;11.116;2023-07-24T04:53:20;100193.59;;;19.07;76.96
49104;BME280;34915;52.926;11.116;2023-07-24T04:55:46;100202.06;;;19.16;76.55
49104;BME280;34915;52.926;11.116;2023-07-24T04:58:11;100192.34;;;19.21;76.97
49104;BME280;34915;52.926;11.116;2023-07-24T05:00:37;100182.66;;;19.25;76.73
49104;BME280;34915;52.926;11.116;2023-07-24T05:03:02;100158.13;;;19.33;76.58
49104;BME280;34915;52.926;11.116;2023-07-24T05:05:28;100154.31;;;19.40;76.76
49104;BME280;34915;52.926;11.116;2023-07-24T05:07:53;100159.44;;;19.19;76.81
49104;BME280;34915;52.926;11.116;2023-07-24T05:10:19;100165.44;;;19.18;76.32
49104;BME280;34915;52.926;11.116;2023-07-24T05:12:44;100171.59;;;19.00;76.75
49104;BME280;34915;52.926;11.116;2023-07-24T05:15:10;100165.00;;;19.07;76.44
49104;BME280;34915;52.926;11.116;2023-07-24T05:17:35;100171.81;;;19.06;76.47
49104;BME280;34915;52.926;11.116;2023-07-24T05:20:01;100170.34;;;19.14;76.12
49104;BME280;34915;52.926;11.116;2023-07-24T05:22:27;100155.53;;;19.17;76.68
49104;BME280;34915;52.926;11.116;2023-07-24T05:24:52;100156.66;;;19.19;76.14
49104;BME280;34915;52.926;11.116;2023-07-24T05:27:18;100148.03;;;19.26;76.49
49104;BME280;34915;52.926;11.116;2023-07-24T05:29:43;100151.72;;;19.23;76.52
49104;BME280;34915;52.926;11.116;2023-07-24T05:32:10;100152.44;;;19.37;76.48
49104;BME280;34915;52.926;11.116;2023-07-24T05:34:35;100161.44;;;19.41;75.83
49104;BME280;34915;52.926;11.116;2023-07-24T05:37:01;100162.63;;;19.52;75.09
49104;BME280;34915;52.926;11.116;2023-07-24T05:39:26;100165.63;;;19.58;73.02
49104;BME280;34915;52.926;11.116;2023-07-24T05:41:52;100164.91;;;19.67;72.30
49104;BME280;34915;52.926;11.116;2023-07-24T05:44:17;100157.00;;;19.87;70.97
49104;BME280;34915;52.926;11.116;2023-07-24T05:46:43;100153.84;;;19.76;72.12
49104;BME280;34915;52.926;11.116;2023-07-24T05:49:08;100156.03;;;20.12;70.55
49104;BME280;34915;52.926;11.116;2023-07-24T05:51:34;100153.50;;;20.36;70.41
49104;BME280;34915;52.926;11.116;2023-07-24T05:53:59;100148.44;;;20.43;70.63
49104;BME280;34915;52.926;11.116;2023-07-24T05:56:25;100147.81;;;20.39;71.41
49104;BME280;34915;52.926;11.116;2023-07-24T05:58:51;100141.50;;;20.48;70.04
49104;BME280;34915;52.926;11.116;2023-07-24T06:01:16;100135.91;;;20.17;70.30
49104;BME280;34915;52.926;11.116;2023-07-24T06:03:42;100139.53;;;20.27;71.32
49104;BME280;34915;52.926;11.116;2023-07-24T06:06:07;100135.06;;;20.29;71.26
49104;BME280;34915;52.926;11.116;2023-07-24T06:08:33;100134.47;;;20.34;71.70
49104;BME280;34915;52.926;11.116;2023-07-24T06:10:58;100128.47;;;20.45;69.36
49104;BME280;34915;52.926;11.116;2023-07-24T06:13:24;100122.00;;;20.57;69.02
49104;BME280;34915;52.926;11.116;2023-07-24T06:15:50;100117.38;;;20.63;69.68
49104;BME280;34915;52.926;11.116;2023-07-24T06:18:17;100119.38;;;20.72;68.59
49104;BME280;34915;52.926;11.116;2023-07-24T06:20:42;100114.28;;;20.79;66.98
49104;BME280;34915;52.926;11.116;2023-07-24T06:23:08;100112.16;;;20.83;67.50
49104;BME280;34915;52.926;11.116;2023-07-24T06:25:34;100113.50;;;20.79;66.58
49104;BME280;34915;52.926;11.116;2023-07-24T06:28:00;100118.03;;;20.86;66.69
49104;BME280;34915;52.926;11.116;2023-07-24T06:30:26;100117.25;;;20.94;66.70
49104;BME280;34915;52.926;11.116;2023-07-24T06:32:51;100116.78;;;21.05;67.47
49104;BME280;34915;52.926;11.116;2023-07-24T06:35:17;100120.66;;;21.07;65.98
49104;BME280;34915;52.926;11.116;2023-07-24T06:37:43;100117.13;;;21.43;63.96
49104;BME280;34915;52.926;11.116;2023-07-24T06:40:09;100114.75;;;21.60;64.49
49104;BME280;34915;52.926;11.116;2023-07-24T06:42:34;100110.41;;;21.59;63.51
49104;BME280;34915;52.926;11.116;2023-07-24T06:45:00;100110.41;;;21.68;64.47
49104;BME280;34915;52.926;11.116;2023-07-24T06:47:26;100104.97;;;21.65;64.11
49104;BME280;34915;52.926;11.116;2023-07-24T06:49:51;100108.22;;;21.72;64.46
49104;BME280;34915;52.926;11.116;2023-07-24T06:52:17;100103.41;;;21.73;64.12
49104;BME280;34915;52.926;11.116;2023-07-24T06:54:42;100103.28;;;21.58;63.30
49104;BME280;34915;52.926;11.116;2023-07-24T06:57:08;100103.78;;;21.38;64.45
49104;BME280;34915;52.926;11.116;2023-07-24T06:59:34;100106.72;;;21.44;64.38
49104;BME280;34915;52.926;11.116;2023-07-24T07:01:59;100101.94;;;21.44;65.12
49104;BME280;34915;52.926;11.116;2023-07-24T07:04:25;100103.31;;;21.40;64.85
49104;BME280;34915;52.926;11.116;2023-07-24T07:06:50;100101.59;;;21.33;64.00
49104;BME280;34915;52.926;11.116;2023-07-24T07:09:16;100096.31;;;21.35;64.49
49104;BME280;34915;52.926;11.116;2023-07-24T07:11:43;100090.75;;;21.26;66.34
49104;BME280;34915;52.926;11.116;2023-07-24T07:14:10;100083.75;;;21.22;65.84
49104;BME280;34915;52.926;11.116;2023-07-24T07:16:36;100061.13;;;21.20;64.96
49104;BME280;34915;52.926;11.116;2023-07-24T07:19:01;100069.19;;;21.17;64.72
49104;BME280;34915;52.926;11.116;2023-07-24T07:21:27;100067.34;;;21.05;65.58
49104;BME280;34915;52.926;11.116;2023-07-24T07:23:52;100085.34;;;21.04;65.69
49104;BME280;34915;52.926;11.116;2023-07-24T07:26:18;100086.41;;;21.07;65.73
49104;BME280;34915;52.926;11.116;2023-07-24T07:28:44;100085.63;;;21.06;66.05
49104;BME280;34915;52.926;11.116;2023-07-24T07:31:12;100085.34;;;21.04;66.48
49104;BME280;34915;52.926;11.116;2023-07-24T07:33:38;100075.41;;;21.03;66.53
49104;BME280;34915;52.926;11.116;2023-07-24T07:36:03;100076.03;;;21.07;67.46
49104;BME280;34915;52.926;11.116;2023-07-24T07:38:29;100083.63;;;20.98;65.98
49104;BME280;34915;52.926;11.116;2023-07-24T07:40:55;100076.66;;;21.02;67.42
49104;BME280;34915;52.926;11.116;2023-07-24T07:43:21;100077.75;;;21.05;65.74
49104;BME280;34915;52.926;11.116;2023-07-24T07:45:47;100071.53;;;21.10;66.04
49104;BME280;34915;52.926;11.116;2023-07-24T07:48:13;100070.91;;;21.15;65.88
49104;BME280;34915;52.926;11.116;2023-07-24T07:50:38;100079.75;;;21.32;67.23
49104;BME280;34915;52.926;11.116;2023-07-24T07:53:04;100073.22;;;21.44;66.18
49104;BME280;34915;52.926;11.116;2023-07-24T07:55:29;100081.00;;;21.40;66.33
49104;BME280;34915;52.926;11.116;2023-07-24T07:57:55;100063.59;;;21.54;65.56
49104;BME280;34915;52.926;11.116;2023-07-24T08:00:21;100066.69;;;21.56;64.13
49104;BME280;34915;52.926;11.116;2023-07-24T08:02:46;100069.00;;;21.58;65.22
49104;BME280;34915;52.926;11.116;2023-07-24T08:05:12;100067.47;;;21.48;64.95
49104;BME280;34915;52.926;11.116;2023-07-24T08:07:38;100076.16;;;21.50;63.74
49104;BME280;34915;52.926;11.116;2023-07-24T08:10:03;100068.09;;;21.52;65.66
49104;BME280;34915;52.926;11.116;2023-07-24T08:12:29;100060.03;;;21.54;64.04
49104;BME280;34915;52.926;11.116;2023-07-24T08:14:58;100056.63;;;21.50;65.18
49104;BME280;34915;52.926;11.116;2023-07-24T08:17:23;100050.25;;;21.49;64.64
49104;BME280;34915;52.926;11.116;2023-07-24T08:19:49;100047.16;;;21.38;65.43
49104;BME280;34915;52.926;11.116;2023-07-24T08:22:14;100048.91;;;21.26;67.04
49104;BME280;34915;52.926;11.116;2023-07-24T08:24:40;100047.34;;;21.07;68.73
49104;BME280;34915;52.926;11.116;2023-07-24T08:27:06;100050.78;;;20.93;68.22
49104;BME280;34915;52.926;11.116;2023-07-24T08:29:31;100050.91;;;20.71;68.17
49104;BME280;34915;52.926;11.116;2023-07-24T08:31:58;100071.81;;;20.48;70.32
49104;BME280;34915;52.926;11.116;2023-07-24T08:34:24;100079.47;;;20.26;73.03
49104;BME280;34915;52.926;11.116;2023-07-24T08:36:49;100077.31;;;19.89;73.61
49104;BME280;34915;52.926;11.116;2023-07-24T08:39:15;100062.47;;;19.62;74.98
49104;BME280;34915;52.926;11.116;2023-07-24T08:41:41;100074.72;;;19.42;76.25
49104;BME280;34915;52.926;11.116;2023-07-24T08:44:09;100075.25;;;19.28;77.13
49104;BME280;34915;52.926;11.116;2023-07-24T08:46:39;100084.78;;;19.18;77.22
49104;BME280;34915;52.926;11.116;2023-07-24T08:49:10;100076.41;;;18.96;77.62
49104;BME280;34915;52.926;11.116;2023-07-24T08:51:37;100082.22;;;18.89;78.28
49104;BME280;34915;52.926;11.116;2023-07-24T08:54:04;100081.63;;;18.94;78.39
49104;BME280;34915;52.926;11.116;2023-07-24T08:56:30;100077.44;;;18.89;78.73
49104;BME280;34915;52.926;11.116;2023-07-24T08:58:56;100070.63;;;18.90;78.54
49104;BME280;34915;52.926;11.116;2023-07-24T09:01:22;100068.31;;;18.89;78.87
49104;BME280;34915;52.926;11.116;2023-07-24T09:03:47;100061.97;;;18.88;78.69
49104;BME280;34915;52.926;11.116;2023-07-24T09:06:15;100049.81;;;18.95;79.43
49104;BME280;34915;52.926;11.116;2023-07-24T09:08:41;100036.31;;;19.06;78.78
49104;BME280;34915;52.926;11.116;2023-07-24T09:11:10;100027.25;;;19.15;79.33
49104;BME280;34915;52.926;11.116;2023-07-24T09:13:37;100030.19;;;19.42;78.31
49104;BME280;34915;52.926;11.116;2023-07-24T09:16:02;100017.63;;;19.59;78.00
49104;BME280;34915;52.926;11.116;2023-07-24T09:18:41;100014.78;;;19.72;77.83
49104;BME280;34915;52.926;11.116;2023-07-24T09:21:08;100013.38;;;19.77;78.17
49104;BME280;34915;52.926;11.116;2023-07-24T09:23:34;100009.97;;;19.73;76.96
49104;BME280;34915;52.926;11.116;2023-07-24T09:26:05;100019.63;;;19.90;78.18
49104;BME280;34915;52.926;11.116;2023-07-24T09:28:31;100017.50;;;20.03;77.94
49104;BME280;34915;52.926;11.116;2023-07-24T09:30:58;100014.16;;;19.77;77.75
49104;BME280;34915;52.926;11.116;2023-07-24T09:33:37;100016.19;;;19.77;78.04
49104;BME280;34915;52.926;11.116;2023-07-24T09:36:07;100026.44;;;19.89;78.23
49104;BME280;34915;52.926;11.116;2023-07-24T09:38:36;100026.81;;;20.18;77.69
49104;BME280;34915;52.926;11.116;2023-07-24T09:41:03;100032.22;;;20.22;77.81
49104;BME280;34915;52.926;11.116;2023-07-24T09:43:29;100025.88;;;20.12;77.61
49104;BME280;34915;52.926;11.116;2023-07-24T09:45:56;100039.50;;;20.19;78.06
49104;BME280;34915;52.926;11.116;2023-07-24T09:48:24;100034.53;;;20.14;77.65
49104;BME280;34915;52.926;11.116;2023-07-24T09:50:53;100041.41;;;20.32;77.70
49104;BME280;34915;52.926;11.116;2023-07-24T09:53:39;100044.50;;;20.25;78.01
49104;BME280;34915;52.926;11.116;2023-07-24T09:56:09;100043.97;;;20.17;76.95
49104;BME280;34915;52.926;11.116;2023-07-24T09:58:38;100040.53;;;20.04;77.16
49104;BME280;34915;52.926;11.116;2023-07-24T10:01:06;100044.28;;;20.19;77.90
49104;BME280;34915;52.926;11.116;2023-07-24T10:03:44;100041.81;;;20.12;77.17
49104;BME280;34915;52.926;11.116;2023-07-24T10:06:10;100038.34;;;19.89;76.79
49104;BME280;34915;52.926;11.116;2023-07-24T10:08:36;100032.28;;;19.82;77.10
49104;BME280;34915;52.926;11.116;2023-07-24T10:11:04;100039.19;;;19.68;76.96
49104;BME280;34915;52.926;11.116;2023-07-24T10:13:29;100033.69;;;19.86;77.55
49104;BME280;34915;52.926;11.116;2023-07-24T10:15:56;100042.03;;;19.86;77.29
49104;BME280;34915;52.926;11.116;2023-07-24T10:18:27;100041.00;;;20.02;76.90
49104;BME280;34915;52.926;11.116;2023-07-24T10:21:03;100033.75;;;20.14;77.25
49104;BME280;34915;52.926;11.116;2023-07-24T10:23:29;100039.13;;;20.39;77.15
49104;BME280;34915;52.926;11.116;2023-07-24T10:25:55;100037.44;;;20.69;75.61
49104;BME280;34915;52.926;11.116;2023-07-24T10:28:30;100030.78;;;20.76;75.61
49104;BME280;34915;52.926;11.116;2023-07-24T10:30:56;100019.16;;;20.77;74.13
49104;BME280;34915;52.926;11.116;2023-07-24T10:33:25;100019.63;;;20.76;74.31
49104;BME280;34915;52.926;11.116;2023-07-24T10:36:02;100019.47;;;20.79;74.96
49104;BME280;34915;52.926;11.116;2023-07-24T10:38:34;100015.28;;;20.57;73.52
49104;BME280;34915;52.926;11.116;2023-07-24T10:41:04;100020.72;;;20.60;74.22
49104;BME280;34915;52.926;11.116;2023-07-24T10:46:13;100006.28;;;20.98;75.18
49104;BME280;34915;52.926;11.116;2023-07-24T10:48:45;100005.78;;;21.18;74.33
49104;BME280;34915;52.926;11.116;2023-07-24T10:51:12;100021.16;;;21.23;74.05
49104;BME280;34915;52.926;11.116;2023-07-24T10:53:44;100014.00;;;21.22;74.60
49104;BME280;34915;52.926;11.116;2023-07-24T10:56:09;100010.91;;;21.29;73.31
49104;BME280;34915;52.926;11.116;2023-07-24T10:58:35;100010.09;;;21.46;72.51
49104;BME280;34915;52.926;11.116;2023-07-24T11:01:04;100011.97;;;21.31;70.26
49104;BME280;34915;52.926;11.116;2023-07-24T11:03:30;100018.66;;;21.34;70.72
49104;BME280;34915;52.926;11.116;2023-07-24T11:05:57;100018.44;;;21.56;71.66
49104;BME280;34915;52.926;11.116;2023-07-24T11:08:23;100020.50;;;21.46;70.41
49104;BME280;34915;52.926;11.116;2023-07-24T11:10:53;100016.63;;;21.43;67.53
49104;BME280;34915;52.926;11.116;2023-07-24T11:13:21;100014.66;;;21.68;69.88
49104;BME280;34915;52.926;11.116;2023-07-24T11:15:48;100009.34;;;21.79;66.55
49104;BME280;34915;52.926;11.116;2023-07-24T11:18:14;100006.75;;;21.66;65.97
49104;BME280;34915;52.926;11.116;2023-07-24T11:20:53;100004.81;;;21.49;65.78
49104;BME280;34915;52.926;11.116;2023-07-24T11:23:19;99998.84;;;22.07;66.44
49104;BME280;34915;52.926;11.116;2023-07-24T11:25:45;99993.78;;;22.20;62.47
49104;BME280;34915;52.926;11.116;2023-07-24T11:28:13;99997.00;;;21.95;62.90
49104;BME280;34915;52.926;11.116;2023-07-24T11:30:40;99992.63;;;21.70;64.00
49104;BME280;34915;52.926;11.116;2023-07-24T11:33:10;99998.34;;;21.75;63.58
49104;BME280;34915;52.926;11.116;2023-07-24T11:35:36;99991.06;;;22.02;61.21
49104;BME280;34915;52.926;11.116;2023-07-24T11:38:05;100000.22;;;22.12;62.92
49104;BME280;34915;52.926;11.116;2023-07-24T11:40:36;99998.09;;;21.97;61.85
49104;BME280;34915;52.926;11.116;2023-07-24T11:43:03;99995.16;;;21.92;61.84
49104;BME280;34915;52.926;11.116;2023-07-24T11:45:42;99998.88;;;21.98;62.22
49104;BME280;34915;52.926;11.116;2023-07-24T11:48:11;99989.63;;;22.16;63.13
49104;BME280;34915;52.926;11.116;2023-07-24T11:50:49;99992.66;;;22.27;62.33
49104;BME280;34915;52.926;11.116;2023-07-24T11:53:31;99980.84;;;22.47;61.63
49104;BME280;34915;52.926;11.116;2023-07-24T11:55:58;99977.16;;;22.64;61.90
49104;BME280;34915;52.926;11.116;2023-07-24T11:58:28;99982.47;;;22.77;62.22
49104;BME280;34915;52.926;11.116;2023-07-24T12:00:56;99970.69;;;22.73;60.47
49104;BME280;34915;52.926;11.116;2023-07-24T12:03:26;99970.63;;;22.97;59.61
49104;BME280;34915;52.926;11.116;2023-07-24T12:05:53;99974.88;;;23.07;59.44
49104;BME280;34915;52.926;11.116;2023-07-24T12:08:34;99971.03;;;23.34;63.14
49104;BME280;34915;52.926;11.116;2023-07-24T12:11:00;99980.41;;;23.31;60.13
49104;BME280;34915;52.926;11.116;2023-07-24T12:13:26;99976.63;;;23.34;60.23
49104;BME280;34915;52.926;11.116;2023-07-24T12:15:54;99969.47;;;23.33;60.78
49104;BME280;34915;52.926;11.116;2023-07-24T12:18:20;99962.88;;;23.51;59.94
49104;BME280;34915;52.926;11.116;2023-07-24T12:20:45;99951.03;;;23.41;59.25
49104;BME280;34915;52.926;11.116;2023-07-24T12:23:12;99957.28;;;23.65;59.51
49104;BME280;34915;52.926;11.116;2023-07-24T12:25:38;99956.91;;;23.73;62.28
49104;BME280;34915;52.926;11.116;2023-07-24T12:28:03;99958.50;;;23.79;62.50
49104;BME280;34915;52.926;11.116;2023-07-24T12:30:29;99948.72;;;23.89;60.88
49104;BME280;34915;52.926;11.116;2023-07-24T12:32:55;99946.00;;;23.95;59.30
49104;BME280;34915;52.926;11.116;2023-07-24T12:35:20;99936.09;;;24.00;62.47
49104;BME280;34915;52.926;11.116;2023-07-24T12:37:46;99937.63;;;24.21;58.79
49104;BME280;34915;52.926;11.116;2023-07-24T12:40:12;99937.72;;;24.26;57.81